Time;durP1;ratioP1;P1;durP2;ratioP2;P2;SDS_P1;SDS_P2;PMS_P1;PMS_P2;Temp;Humidity;BMP_temperature;BMP_pressure;BME280_temperature;BME280_humidity;BME280_pressure;Samples;Min_cycle;Max_cycle;Signal;HPM_P1;HPM_P2
2022/06/23 00:01:02;;;;;;;3.50;1.20;;;23.10;64.80;;;;;;6189856;23;20472;-70
2022/06/23 00:03:30;;;;;;;1.65;1.20;;;23.10;64.70;;;;;;6190287;23;20005;-70
2022/06/23 00:05:57;;;;;;;1.65;1.00;;;23.10;64.80;;;;;;6165646;23;20001;-70
2022/06/23 00:08:23;;;;;;;1.10;1.00;;;23.00;64.80;;;;;;6165260;23;20005;-70
2022/06/23 00:10:55;;;;;;;1.60;1.00;;;23.00;64.80;;;;;;6216490;23;20401;-70
2022/06/23 00:13:35;;;;;;;1.40;1.10;;;23.00;64.80;;;;;;6189642;23;20058;-70
2022/06/23 00:16:01;;;;;;;2.35;1.20;;;23.00;64.80;;;;;;6190016;23;19997;-70
2022/06/23 00:18:31;;;;;;;1.00;0.95;;;23.00;64.90;;;;;;6216183;23;20009;-70
2022/06/23 00:21:03;;;;;;;2.42;0.98;;;23.00;65.00;;;;;;6165781;23;20337;-70
2022/06/23 00:23:29;;;;;;;1.38;1.10;;;23.00;65.00;;;;;;6164835;23;20400;-70
2022/06/23 00:26:16;;;;;;;1.23;1.00;;;23.00;65.00;;;;;;6216268;23;20054;-70
2022/06/23 00:29:01;;;;;;;2.10;1.05;;;23.10;64.90;;;;;;6166164;23;20028;-70
2022/06/23 00:31:36;;;;;;;1.33;1.10;;;23.00;64.90;;;;;;6192438;23;20011;-70
2022/06/23 00:34:22;;;;;;;1.55;1.00;;;23.00;65.00;;;;;;6189859;23;19996;-70
2022/06/23 00:36:52;;;;;;;2.47;1.00;;;23.10;65.00;;;;;;6168463;23;20035;-70
2022/06/23 00:39:34;;;;;;;1.00;1.00;;;23.00;65.00;;;;;;6165654;23;19996;-70
2022/06/23 00:42:00;;;;;;;2.63;1.25;;;23.00;65.10;;;;;;6166484;23;20000;-70
2022/06/23 00:44:31;;;;;;;1.65;1.10;;;23.00;65.00;;;;;;6189522;23;20000;-70
2022/06/23 00:46:59;;;;;;;2.15;1.10;;;23.00;65.10;;;;;;6189657;23;20028;-70
2022/06/23 00:49:25;;;;;;;1.25;1.15;;;23.00;65.00;;;;;;6164940;23;20008;-70
2022/06/23 00:51:54;;;;;;;1.42;0.95;;;23.00;65.10;;;;;;6189410;23;20032;-70
2022/06/23 00:54:22;;;;;;;1.20;1.08;;;23.00;65.10;;;;;;6189523;23;20054;-70
2022/06/23 00:57:04;;;;;;;1.10;0.95;;;23.00;65.20;;;;;;6189643;23;20001;-70
2022/06/23 00:59:42;;;;;;;1.35;1.10;;;23.00;65.20;;;;;;6190913;23;20001;-70
2022/06/23 01:02:09;;;;;;;2.45;1.23;;;23.00;65.30;;;;;;6191663;23;20001;-70
2022/06/23 01:04:41;;;;;;;1.65;0.98;;;23.00;65.30;;;;;;6215858;23;20031;-70
2022/06/23 01:07:28;;;;;;;2.00;1.00;;;23.00;65.40;;;;;;6189016;23;20005;-70
2022/06/23 01:09:59;;;;;;;3.63;1.00;;;22.90;65.20;;;;;;6215738;23;20008;-70
2022/06/23 01:12:39;;;;;;;2.42;1.20;;;22.90;65.40;;;;;;6188890;23;20008;-70
2022/06/23 01:15:19;;;;;;;1.48;0.90;;;22.90;65.40;;;;;;6189429;23;20028;-70
2022/06/23 01:17:52;;;;;;;1.65;1.00;;;23.00;65.40;;;;;;6167276;23;19997;-70
2022/06/23 01:20:38;;;;;;;2.50;1.08;;;23.00;65.50;;;;;;6188792;23;20047;-70
2022/06/23 01:23:29;;;;;;;2.10;1.17;;;23.00;66.50;;;;;;6190687;23;20012;-70
2022/06/23 01:26:23;;;;;;;1.13;1.00;;;23.00;65.50;;;;;;6169302;23;20009;-70
2022/06/23 01:28:48;;;;;;;2.10;1.08;;;22.90;65.50;;;;;;6193378;23;20456;-70
2022/06/23 01:31:46;;;;;;;1.15;1.00;;;22.90;65.50;;;;;;6188995;23;20019;-70
2022/06/23 01:34:33;;;;;;;1.20;1.05;;;22.90;65.50;;;;;;6166597;23;20492;-70
2022/06/23 01:37:01;;;;;;;1.90;1.10;;;22.90;65.50;;;;;;6188783;23;20020;-70
2022/06/23 01:39:35;;;;;;;2.17;1.10;;;22.90;65.60;;;;;;6164524;23;20490;-70
2022/06/23 01:42:05;;;;;;;1.50;0.75;;;22.90;65.60;;;;;;6190360;23;20008;-70
2022/06/23 01:44:56;;;;;;;2.70;1.60;;;22.90;65.60;;;;;;6189650;23;20005;-70
2022/06/23 01:47:32;;;;;;;1.60;1.20;;;22.90;65.60;;;;;;6215624;23;20497;-70
2022/06/23 01:50:14;;;;;;;0.95;0.80;;;22.90;65.60;;;;;;6188996;23;20031;-70
2022/06/23 01:52:44;;;;;;;1.10;1.00;;;22.90;65.60;;;;;;6189025;23;20008;-70
2022/06/23 01:55:27;;;;;;;1.17;1.10;;;22.90;65.60;;;;;;6164195;23;20027;-70
2022/06/23 01:57:53;;;;;;;;;;;22.90;65.60;;;;;;6164742;23;20023;-70
2022/06/23 02:00:20;;;;;;;1.38;1.00;;;22.90;65.60;;;;;;6215467;23;19906;-70
2022/06/23 02:03:23;;;;;;;1.95;1.10;;;22.90;65.70;;;;;;6139290;23;20344;-70
2022/06/23 02:06:02;;;;;;;1.27;1.10;;;22.90;65.70;;;;;;6188795;23;20379;-70
2022/06/23 02:08:48;;;;;;;2.35;1.23;;;22.90;65.70;;;;;;6190722;23;20004;-70
2022/06/23 02:11:18;;;;;;;1.30;1.20;;;22.90;65.60;;;;;;6191571;23;20059;-70
2022/06/23 02:13:55;;;;;;;2.38;1.05;;;22.90;65.60;;;;;;6188532;23;20016;-70
2022/06/23 02:16:26;;;;;;;2.42;1.00;;;22.90;65.70;;;;;;6164511;23;19997;-70
2022/06/23 02:19:24;;;;;;;2.80;0.82;;;22.90;65.70;;;;;;6164555;23;20075;-70
2022/06/23 02:21:59;;;;;;;2.55;1.02;;;22.80;65.80;;;;;;6192140;23;20009;-70
2022/06/23 02:24:33;;;;;;;7.00;1.60;;;22.80;65.70;;;;;;6214955;23;20004;-70
2022/06/23 02:27:23;;;;;;;1.27;1.10;;;22.80;65.70;;;;;;6164230;23;20028;-69
2022/06/23 02:29:54;;;;;;;1.48;0.95;;;22.90;65.70;;;;;;6188546;23;20009;-70
2022/06/23 02:32:47;;;;;;;1.53;1.10;;;22.90;65.80;;;;;;6214777;23;20027;-70
2022/06/23 02:35:25;;;;;;;4.40;1.23;;;22.80;65.80;;;;;;6152076;23;20357;-70
2022/06/23 02:37:59;;;;;;;1.70;1.00;;;22.90;66.90;;;;;;6214906;23;20020;-70
2022/06/23 02:40:41;;;;;;;1.25;1.08;;;22.80;65.90;;;;;;6164717;23;20000;-70
2022/06/23 02:43:15;;;;;;;4.22;1.25;;;22.80;65.80;;;;;;6188290;23;20005;-70
2022/06/23 02:46:08;;;;;;;1.02;0.90;;;22.80;66.00;;;;;;6189025;23;20499;-70
2022/06/23 02:48:58;;;;;;;1.00;1.00;;;22.80;65.90;;;;;;6214301;23;20349;-70
2022/06/23 02:51:45;;;;;;;6.80;1.10;;;22.80;66.00;;;;;;6214820;23;20452;-70
2022/06/23 02:54:26;;;;;;;3.22;1.00;;;22.80;66.20;;;;;;6188176;23;20341;-70
2022/06/23 02:57:26;;;;;;;1.50;1.00;;;22.80;66.20;;;;;;6214775;23;20386;-70
2022/06/23 03:00:00;;;;;;;1.77;1.25;;;22.80;66.10;;;;;;6188270;23;20000;-70
2022/06/23 03:02:30;;;;;;;3.83;1.00;;;22.80;66.30;;;;;;6189414;23;20008;-70
2022/06/23 03:05:08;;;;;;;3.42;1.27;;;22.80;66.20;;;;;;6188240;23;20011;-70
2022/06/23 03:07:42;;;;;;;2.08;0.90;;;22.80;67.30;;;;;;6164801;23;20061;-70
2022/06/23 03:10:20;;;;;;;2.78;1.40;;;22.80;66.40;;;;;;6189016;23;20023;-70
2022/06/23 03:13:16;;;;;;;1.10;0.93;;;22.80;66.40;;;;;;6164754;23;20067;-70
2022/06/23 03:16:05;;;;;;;1.17;1.00;;;22.80;66.30;;;;;;6187648;23;20001;-70
2022/06/23 03:18:36;;;;;;;3.55;1.35;;;22.80;66.40;;;;;;6164674;23;20313;-70
2022/06/23 03:21:07;;;;;;;1.10;1.10;;;22.80;66.40;;;;;;6188110;23;20004;-70
2022/06/23 03:23:58;;;;;;;1.65;1.00;;;22.80;66.40;;;;;;6163651;23;20346;-70
2022/06/23 03:26:45;;;;;;;1.17;0.80;;;22.80;66.40;;;;;;6188032;23;20005;-70
2022/06/23 03:29:35;;;;;;;2.60;1.20;;;22.80;66.50;;;;;;6214620;23;20004;-70
2022/06/23 03:32:10;;;;;;;1.58;1.17;;;22.80;66.50;;;;;;6187848;23;20005;-70
2022/06/23 03:34:56;;;;;;;1.95;1.00;;;22.80;66.60;;;;;;6214765;23;20000;-70
2022/06/23 03:37:37;;;;;;;2.22;1.15;;;22.80;66.50;;;;;;6187906;23;20032;-70
2022/06/23 03:43:27;;;;;;;1.77;1.15;;;22.80;66.60;;;;;;6191975;23;20508;-70
2022/06/23 03:46:20;;;;;;;1.25;1.00;;;22.70;66.60;;;;;;6163862;23;20008;-70
2022/06/23 03:48:59;;;;;;;1.00;1.00;;;22.80;66.70;;;;;;6167436;23;20011;-70
2022/06/23 03:51:33;;;;;;;3.90;0.95;;;22.80;66.80;;;;;;6165409;23;20005;-70
2022/06/23 03:54:10;;;;;;;1.50;1.08;;;22.70;66.90;;;;;;6164790;23;20003;-70
2022/06/23 03:56:47;;;;;;;2.42;1.00;;;22.70;66.90;;;;;;6165266;23;20031;-70
2022/06/23 03:59:17;;;;;;;1.83;0.90;;;22.70;67.00;;;;;;6189964;23;20106;-70
2022/06/23 04:01:53;;;;;;;1.42;1.00;;;22.70;66.90;;;;;;6187793;23;20440;-70
2022/06/23 04:04:22;;;;;;;1.55;1.02;;;22.70;66.90;;;;;;6163652;23;20458;-70
2022/06/23 04:06:49;;;;;;;1.60;1.00;;;22.70;67.10;;;;;;6163906;23;20027;-70
2022/06/23 04:09:24;;;;;;;2.08;1.10;;;22.70;67.00;;;;;;6163410;23;20012;-70
2022/06/23 04:11:56;;;;;;;2.08;1.20;;;22.70;67.10;;;;;;6187845;23;20012;-70
2022/06/23 04:14:39;;;;;;;3.57;1.20;;;22.70;67.10;;;;;;6214150;23;20000;-70
2022/06/23 04:17:07;;;;;;;1.10;1.00;;;22.70;67.10;;;;;;6214444;23;20034;-70
2022/06/23 04:19:32;;;;;;;5.20;1.33;;;22.70;67.20;;;;;;6187837;23;20001;-70
2022/06/23 04:22:24;;;;;;;1.35;0.88;;;22.70;67.30;;;;;;6163280;23;20072;-70
2022/06/23 04:24:51;;;;;;;1.02;0.93;;;22.70;67.20;;;;;;6191664;23;20011;-70
2022/06/23 04:27:27;;;;;;;1.25;0.77;;;22.70;67.40;;;;;;6188431;23;20028;-70
2022/06/23 04:29:55;;;;;;;1.38;1.02;;;22.70;67.40;;;;;;6166156;23;20071;-70
2022/06/23 04:32:26;;;;;;;1.52;0.90;;;22.70;67.40;;;;;;6190101;23;20031;-70
2022/06/23 04:35:07;;;;;;;0.90;0.90;;;22.70;67.30;;;;;;6165124;23;19996;-70
2022/06/23 04:37:37;;;;;;;0.88;0.88;;;22.70;67.40;;;;;;6166220;23;20020;-70
2022/06/23 04:40:14;;;;;;;1.67;1.00;;;22.70;67.40;;;;;;6190561;23;20027;-70
2022/06/23 04:42:44;;;;;;;1.65;0.90;;;22.70;67.50;;;;;;6166318;23;20028;-70
2022/06/23 04:45:37;;;;;;;0.90;0.90;;;22.70;67.50;;;;;;6165044;23;20004;-70
2022/06/23 04:48:12;;;;;;;;;;;22.70;67.50;;;;;;6190388;23;20054;-70
2022/06/23 04:50:48;;;;;;;0.80;0.80;;;22.70;67.50;;;;;;6189620;23;19975;-70
2022/06/23 04:53:45;;;;;;;1.23;1.00;;;22.70;67.60;;;;;;6165153;23;20004;-70
2022/06/23 04:56:17;;;;;;;2.30;0.90;;;22.70;67.60;;;;;;6066100;23;20151;-69
2022/06/23 04:58:47;;;;;;;1.05;0.85;;;22.70;67.60;;;;;;6064705;23;20007;-69
2022/06/23 05:01:15;;;;;;;3.88;0.93;;;22.70;67.80;;;;;;6062742;23;20009;-69
2022/06/23 05:03:44;;;;;;;3.65;1.00;;;22.70;68.10;;;;;;6064349;23;20022;-69
2022/06/23 05:06:18;;;;;;;1.77;1.10;;;22.70;68.40;;;;;;6040505;23;20412;-69
2022/06/23 05:08:44;;;;;;;3.13;1.00;;;22.70;68.50;;;;;;6064556;23;20116;-70
2022/06/23 05:11:43;;;;;;;1.10;1.00;;;22.70;68.70;;;;;;6064552;23;20050;-70
2022/06/23 05:14:29;;;;;;;2.53;1.27;;;22.70;68.60;;;;;;6045371;23;20007;-70
2022/06/23 05:17:19;;;;;;;1.33;1.17;;;22.70;68.60;;;;;;6064530;23;20007;-70
2022/06/23 05:19:45;;;;;;;1.55;1.10;;;22.70;68.70;;;;;;6064432;23;20526;-70
2022/06/23 05:22:28;;;;;;;1.58;1.05;;;22.70;68.80;;;;;;6064595;23;20010;-69
2022/06/23 05:24:54;;;;;;;1.63;1.52;;;22.70;68.90;;;;;;6064286;23;20026;-70
2022/06/23 05:27:24;;;;;;;1.63;1.50;;;22.70;66.70;;;;;;6063829;23;20148;-70
2022/06/23 05:30:23;;;;;;;2.80;1.73;;;22.60;66.00;;;;;;6064245;23;20014;-70
2022/06/23 05:32:52;;;;;;;2.55;1.65;;;22.60;65.70;;;;;;6120946;23;20077;-70
2022/06/23 05:35:46;;;;;;;2.15;1.52;;;22.50;65.10;;;;;;6163124;23;20001;-70
2022/06/23 05:38:24;;;;;;;2.67;1.60;;;22.50;64.80;;;;;;6166444;23;20039;-70
2022/06/23 05:40:57;;;;;;;3.85;2.00;;;22.50;64.60;;;;;;6213447;23;20078;-70
2022/06/23 05:43:23;;;;;;;2.08;1.67;;;22.50;64.30;;;;;;6188669;23;20059;-70
2022/06/23 05:45:52;;;;;;;1.73;1.50;;;22.40;64.10;;;;;;6187462;23;20004;-69
2022/06/23 05:48:21;;;;;;;2.20;1.85;;;22.40;63.80;;;;;;6163173;23;20040;-69
2022/06/23 05:50:50;;;;;;;3.17;1.77;;;22.40;63.90;;;;;;6163183;23;20005;-69
2022/06/23 05:53:21;;;;;;;2.70;1.92;;;22.40;63.60;;;;;;6187573;23;20005;-69
2022/06/23 05:55:48;;;;;;;2.38;1.85;;;22.40;63.60;;;;;;6187301;23;20005;-69
2022/06/23 05:58:19;;;;;;;1.67;1.58;;;22.40;63.70;;;;;;6213929;23;20337;-69
2022/06/23 06:00:57;;;;;;;2.25;1.88;;;22.40;63.50;;;;;;6213885;23;20031;-69
2022/06/23 06:03:29;;;;;;;1.88;1.67;;;22.30;63.50;;;;;;6187743;23;20083;-69
2022/06/23 06:05:56;;;;;;;2.63;1.85;;;22.30;63.30;;;;;;6163626;23;20502;-69
2022/06/23 06:08:25;;;;;;;2.08;1.75;;;22.30;63.40;;;;;;6187570;23;20011;-69
2022/06/23 06:10:51;;;;;;;1.90;1.80;;;22.30;63.20;;;;;;6163071;23;20054;-69
2022/06/23 06:13:31;;;;;;;4.90;2.20;;;22.20;63.20;;;;;;6187689;23;20072;-69
2022/06/23 06:15:57;;;;;;;2.30;1.90;;;22.30;64.20;;;;;;6187667;23;20001;-69
2022/06/23 06:18:36;;;;;;;2.08;1.65;;;22.20;63.10;;;;;;6214196;23;20063;-69
2022/06/23 06:21:03;;;;;;;5.40;2.65;;;22.20;63.20;;;;;;6214626;23;20043;-70
2022/06/23 06:23:44;;;;;;;11.65;4.22;;;22.20;63.20;;;;;;6162833;23;20005;-70
2022/06/23 06:26:15;;;;;;;11.82;3.30;;;22.20;63.40;;;;;;6213133;23;20004;-70
2022/06/23 06:28:41;;;;;;;8.55;3.17;;;22.20;63.40;;;;;;6213908;23;20001;-70
2022/06/23 06:31:27;;;;;;;10.15;3.60;;;22.20;63.60;;;;;;6186874;23;20034;-69
2022/06/23 06:34:01;;;;;;;12.70;3.45;;;22.20;63.70;;;;;;6186468;23;20440;-69
2022/06/23 06:36:27;;;;;;;9.52;3.22;;;22.20;63.90;;;;;;6213153;23;20008;-69
2022/06/23 06:38:55;;;;;;;9.38;3.08;;;22.20;64.10;;;;;;6213402;23;20000;-69
2022/06/23 06:41:21;;;;;;;8.80;2.83;;;22.20;64.10;;;;;;6188587;23;19997;-69
2022/06/23 06:43:47;;;;;;;7.88;2.95;;;22.20;64.20;;;;;;6213783;23;20011;-69
2022/06/23 06:46:12;;;;;;;8.40;2.88;;;22.20;64.20;;;;;;6163054;23;20440;-69
2022/06/23 06:48:38;;;;;;;12.60;2.88;;;22.20;64.30;;;;;;6188415;23;20047;-69
2022/06/23 06:51:14;;;;;;;9.35;3.05;;;22.10;64.20;;;;;;6188227;23;20011;-69
2022/06/23 06:53:41;;;;;;;10.05;2.67;;;22.20;64.40;;;;;;6214409;23;20001;-69
2022/06/23 06:56:15;;;;;;;8.75;3.10;;;22.10;64.40;;;;;;6163816;23;20001;-69
2022/06/23 06:58:43;;;;;;;9.88;3.58;;;22.10;64.40;;;;;;6189919;23;20023;-69
2022/06/23 07:01:17;;;;;;;7.75;3.00;;;22.10;64.30;;;;;;6188012;23;20425;-69
2022/06/23 07:03:44;;;;;;;7.30;2.75;;;22.10;64.40;;;;;;6214736;23;20079;-69
2022/06/23 07:06:37;;;;;;;6.93;3.25;;;22.10;64.40;;;;;;6163768;23;20459;-69
2022/06/23 07:09:21;;;;;;;7.65;3.38;;;22.10;64.50;;;;;;6187765;23;20004;-69
2022/06/23 07:11:52;;;;;;;12.32;3.63;;;22.10;64.50;;;;;;6214549;23;20005;-69
2022/06/23 07:14:31;;;;;;;10.75;3.53;;;22.10;64.60;;;;;;6188213;23;20339;-69
2022/06/23 07:16:56;;;;;;;8.82;2.90;;;22.10;64.60;;;;;;6214616;23;20001;-69
2022/06/23 07:19:40;;;;;;;9.68;3.10;;;22.10;64.70;;;;;;6214680;23;20072;-69
2022/06/23 07:22:05;;;;;;;10.13;3.20;;;22.10;64.70;;;;;;6188795;23;20080;-69
2022/06/23 07:24:50;;;;;;;7.63;3.20;;;22.10;64.90;;;;;;6214612;23;20384;-69
2022/06/23 07:27:21;;;;;;;6.63;2.88;;;22.00;64.70;;;;;;6165039;23;20008;-69
2022/06/23 07:30:04;;;;;;;9.00;3.35;;;22.00;64.70;;;;;;6214717;23;20005;-69
2022/06/23 07:32:35;;;;;;;6.60;3.00;;;22.00;64.70;;;;;;6214450;23;20012;-69
2022/06/23 07:35:25;;;;;;;4.03;2.70;;;22.10;64.60;;;;;;6188176;23;19997;-69
2022/06/23 07:38:02;;;;;;;8.65;3.20;;;22.00;64.60;;;;;;6214289;23;20380;-69
2022/06/23 07:40:28;;;;;;;8.00;3.38;;;22.00;64.60;;;;;;6164459;23;20004;-69
2022/06/23 07:43:03;;;;;;;8.05;2.92;;;22.00;64.60;;;;;;6163387;23;20376;-69
2022/06/23 07:45:42;;;;;;;7.90;3.05;;;22.00;64.50;;;;;;6164100;23;20016;-69
2022/06/23 07:48:08;;;;;;;8.52;3.78;;;22.00;64.40;;;;;;6214606;23;20004;-69
2022/06/23 07:50:33;;;;;;;6.10;3.10;;;22.00;64.50;;;;;;6214617;23;20004;-69
2022/06/23 07:52:59;;;;;;;8.15;2.90;;;22.00;64.40;;;;;;6214022;23;20005;-69
2022/06/23 07:55:35;;;;;;;7.97;3.35;;;22.00;64.40;;;;;;6163594;23;20494;-69
2022/06/23 07:58:01;;;;;;;6.10;3.17;;;22.00;64.40;;;;;;6214433;23;20039;-69
2022/06/23 08:00:27;;;;;;;6.55;3.08;;;22.00;64.40;;;;;;6188005;23;19997;-69
2022/06/23 08:03:00;;;;;;;8.40;3.10;;;22.00;64.50;;;;;;6163747;23;20008;-69
2022/06/23 08:05:48;;;;;;;5.20;2.80;;;22.00;64.50;;;;;;6166958;23;20011;-69
2022/06/23 08:08:18;;;;;;;7.32;3.13;;;21.90;64.50;;;;;;6166487;23;20108;-69
2022/06/23 08:10:43;;;;;;;9.35;2.92;;;22.00;64.60;;;;;;6190691;23;20076;-69
2022/06/23 08:13:12;;;;;;;8.35;3.33;;;21.90;64.60;;;;;;6164930;23;20039;-69
2022/06/23 08:18:46;;;;;;;5.60;2.72;;;21.90;64.70;;;;;;6046408;23;20002;-69
2022/06/23 08:21:24;;;;;;;5.30;2.65;;;21.90;64.70;;;;;;6066161;23;20017;-69
2022/06/23 08:24:00;;;;;;;10.30;2.97;;;21.90;64.80;;;;;;6066496;23;20011;-69
2022/06/23 08:26:26;;;;;;;4.05;2.88;;;21.90;64.80;;;;;;6066461;23;20478;-69
2022/06/23 08:28:54;;;;;;;4.18;2.65;;;21.90;64.80;;;;;;6066317;23;20007;-69
2022/06/23 08:31:19;;;;;;;5.90;2.75;;;21.90;64.80;;;;;;6066349;23;20021;-69
2022/06/23 08:33:45;;;;;;;6.45;2.72;;;21.90;64.80;;;;;;6066148;23;20014;-69
2022/06/23 08:36:14;;;;;;;7.07;3.20;;;21.90;64.90;;;;;;6065531;23;20018;-69
2022/06/23 08:38:53;;;;;;;7.28;3.40;;;21.90;64.90;;;;;;6042270;23;20396;-69
2022/06/23 08:41:29;;;;;;;6.78;3.35;;;21.90;65.00;;;;;;6066345;23;20046;-69
2022/06/23 08:44:07;;;;;;;5.95;2.85;;;21.90;65.10;;;;;;6066072;23;20471;-69
2022/06/23 08:46:48;;;;;;;4.60;3.05;;;21.80;65.10;;;;;;6066243;23;20015;-69
2022/06/23 08:49:22;;;;;;;6.10;3.78;;;21.90;65.20;;;;;;6065897;23;20171;-69
2022/06/23 08:51:58;;;;;;;7.70;3.20;;;21.90;65.30;;;;;;6065805;23;20440;-69
2022/06/23 08:54:41;;;;;;;5.13;3.55;;;21.80;65.50;;;;;;6066068;23;20003;-69
2022/06/23 08:57:23;;;;;;;4.25;3.85;;;21.80;65.70;;;;;;6189573;23;20003;-69
2022/06/23 09:00:00;;;;;;;5.53;3.80;;;21.70;65.80;;;;;;6189392;23;20381;-69
2022/06/23 09:02:35;;;;;;;6.85;4.45;;;21.70;65.90;;;;;;6215891;23;20012;-69
2022/06/23 09:05:04;;;;;;;6.82;4.03;;;21.70;66.10;;;;;;6188958;23;20318;-69
2022/06/23 09:08:06;;;;;;;6.25;4.32;;;21.70;66.30;;;;;;6215934;23;20008;-69
2022/06/23 09:10:34;;;;;;;5.97;3.95;;;21.70;66.20;;;;;;6193274;23;20004;-69
2022/06/23 09:13:42;;;;;;;6.72;4.20;;;21.70;66.30;;;;;;6215704;23;20009;-69
2022/06/23 09:16:16;;;;;;;5.15;3.92;;;21.70;66.10;;;;;;6215134;23;19996;-69
2022/06/23 09:19:06;;;;;;;4.60;4.15;;;21.70;66.10;;;;;;6216052;23;20000;-69
2022/06/23 09:21:54;;;;;;;5.65;3.95;;;21.70;66.60;;;;;;6166629;23;20001;-69
2022/06/23 09:24:19;;;;;;;5.32;4.50;;;21.70;66.50;;;;;;6166350;23;19996;-69
2022/06/23 09:27:10;;;;;;;7.55;4.55;;;21.70;66.50;;;;;;6215803;23;20000;-69
2022/06/23 09:29:47;;;;;;;5.80;4.78;;;21.70;66.50;;;;;;6215566;23;20455;-69
2022/06/23 09:32:45;;;;;;;4.95;4.38;;;21.70;66.60;;;;;;6215531;23;20005;-69
2022/06/23 09:35:21;;;;;;;6.60;4.55;;;21.70;66.70;;;;;;6094168;23;20343;-70
2022/06/23 09:38:05;;;;;;;9.95;5.05;;;21.70;66.60;;;;;;6070378;23;20014;-70
2022/06/23 09:40:50;;;;;;;5.30;4.43;;;21.70;66.90;;;;;;6094367;23;20102;-70
2022/06/23 09:43:52;;;;;;;7.15;4.85;;;21.70;66.80;;;;;;6073349;23;20073;-70
2022/06/23 09:46:36;;;;;;;5.63;4.70;;;21.70;66.70;;;;;;6074030;23;20078;-70
2022/06/23 09:49:04;;;;;;;6.22;4.25;;;21.70;66.80;;;;;;6070220;23;20017;-70
2022/06/23 09:51:39;;;;;;;4.75;3.75;;;21.70;66.90;;;;;;6094456;23;20010;-70
2022/06/23 09:54:25;;;;;;;6.20;4.00;;;21.70;66.60;;;;;;6094383;23;20006;-70
2022/06/23 09:57:09;;;;;;;4.35;3.72;;;21.70;66.60;;;;;;6070216;23;20343;-70
2022/06/23 10:00:06;;;;;;;4.57;4.18;;;21.70;66.50;;;;;;6094297;23;20455;-70
2022/06/23 10:02:39;;;;;;;5.95;4.20;;;21.70;66.50;;;;;;6093917;23;20010;-70
2022/06/23 10:05:15;;;;;;;5.32;4.28;;;21.70;66.50;;;;;;6070265;23;20006;-69
2022/06/23 10:07:52;;;;;;;4.43;3.88;;;21.70;66.50;;;;;;6094208;23;20010;-69
2022/06/23 10:10:39;;;;;;;4.97;3.90;;;21.60;66.50;;;;;;6093973;23;20010;-69
2022/06/23 10:13:30;;;;;;;3.65;3.15;;;21.60;66.50;;;;;;6204289;23;20009;-69
2022/06/23 10:16:07;;;;;;;4.88;4.38;;;21.60;66.50;;;;;;6188637;23;20001;-69
2022/06/23 10:18:40;;;;;;;4.00;3.70;;;21.60;66.50;;;;;;6215065;23;20020;-69
2022/06/23 10:21:15;;;;;;;4.15;3.75;;;21.60;66.40;;;;;;6188632;23;20054;-69
2022/06/23 10:23:56;;;;;;;3.95;3.55;;;21.60;66.50;;;;;;6215109;23;20378;-69
2022/06/23 10:26:25;;;;;;;4.32;3.70;;;21.60;66.40;;;;;;6188391;23;20104;-69
2022/06/23 10:28:59;;;;;;;5.03;3.78;;;21.60;66.40;;;;;;6215133;23;20001;-69
2022/06/23 10:32:06;;;;;;;4.00;3.60;;;21.50;66.30;;;;;;6214801;23;20130;-69
2022/06/23 10:34:37;;;;;;;5.47;3.80;;;21.50;66.30;;;;;;6093794;23;20015;-69
2022/06/23 10:37:11;;;;;;;4.95;4.03;;;21.50;66.30;;;;;;6093627;23;20098;-69
2022/06/23 10:39:45;;;;;;;4.63;3.70;;;21.60;66.30;;;;;;6093784;23;20010;-69
2022/06/23 10:42:47;;;;;;;4.47;3.83;;;21.60;66.20;;;;;;6070326;23;20006;-69
2022/06/23 10:45:31;;;;;;;5.13;3.93;;;21.60;66.20;;;;;;6093443;23;20034;-69
2022/06/23 10:48:09;;;;;;;3.15;2.95;;;21.60;66.20;;;;;;6093955;23;20513;-69
2022/06/23 10:50:48;;;;;;;4.88;3.85;;;21.60;66.20;;;;;;6093911;23;20077;-69
2022/06/23 10:53:31;;;;;;;5.90;4.00;;;21.60;66.20;;;;;;6070326;23;20006;-69
2022/06/23 10:56:12;;;;;;;4.53;3.85;;;21.60;66.20;;;;;;6093763;23;20008;-69
2022/06/23 10:58:56;;;;;;;4.35;3.60;;;21.60;66.30;;;;;;6093907;23;20002;-69
2022/06/23 11:01:30;;;;;;;5.53;4.05;;;21.60;66.40;;;;;;6069398;23;20041;-69
2022/06/23 11:04:11;;;;;;;5.32;4.18;;;21.50;66.40;;;;;;6093962;23;20303;-69
2022/06/23 11:06:49;;;;;;;6.57;4.35;;;21.50;66.40;;;;;;6190262;23;20008;-69
2022/06/23 11:09:29;;;;;;;3.97;3.63;;;21.50;66.30;;;;;;6214785;23;20463;-69
2022/06/23 11:12:07;;;;;;;4.00;3.60;;;21.50;66.20;;;;;;6214798;23;20005;-69
2022/06/23 11:15:13;;;;;;;4.78;3.67;;;21.50;66.30;;;;;;6214440;23;20055;-69
2022/06/23 11:18:07;;;;;;;4.28;3.40;;;21.50;66.20;;;;;;6188197;23;20436;-69
2022/06/23 11:21:05;;;;;;;4.15;3.45;;;21.60;66.30;;;;;;6188574;23;20024;-69
2022/06/23 11:23:37;;;;;;;3.30;3.00;;;21.60;66.20;;;;;;6214546;23;20083;-69
2022/06/23 11:26:24;;;;;;;3.22;2.95;;;21.50;66.20;;;;;;6189144;23;20004;-69
2022/06/23 11:29:12;;;;;;;3.90;3.10;;;21.60;66.20;;;;;;6214326;23;20005;-69
2022/06/23 11:31:53;;;;;;;5.18;3.00;;;21.60;66.00;;;;;;6214690;23;20146;-69
2022/06/23 11:34:50;;;;;;;4.38;2.72;;;21.60;65.90;;;;;;6188174;23;20000;-69
2022/06/23 11:37:51;;;;;;;3.17;2.88;;;21.60;65.20;;;;;;6213777;23;20013;-69
2022/06/23 11:40:54;;;;;;;4.72;2.92;;;21.60;65.20;;;;;;6214523;23;20011;-69
2022/06/23 11:43:20;;;;;;;3.83;2.83;;;21.50;64.70;;;;;;6191364;23;20005;-69
2022/06/23 11:45:55;;;;;;;2.85;2.60;;;21.50;64.60;;;;;;6188113;23;20032;-69
2022/06/23 11:48:30;;;;;;;3.33;2.40;;;21.50;64.50;;;;;;6214443;23;20039;-69
2022/06/23 11:51:11;;;;;;;3.08;2.40;;;21.50;64.20;;;;;;6214627;23;20027;-69
2022/06/23 11:54:16;;;;;;;3.17;2.13;;;21.50;64.40;;;;;;6190472;23;20001;-69
2022/06/23 11:56:48;;;;;;;2.85;2.10;;;21.60;64.40;;;;;;6214498;23;20000;-69
2022/06/23 11:59:16;;;;;;;3.38;2.10;;;21.60;64.50;;;;;;6188580;23;20004;-69
2022/06/23 12:01:42;;;;;;;2.67;2.10;;;21.50;64.20;;;;;;6214365;23;19996;-69
2022/06/23 12:04:27;;;;;;;2.42;1.90;;;21.60;64.00;;;;;;6214623;23;20007;-69
2022/06/23 12:07:05;;;;;;;2.70;1.80;;;21.50;64.20;;;;;;6214383;23;20341;-69
2022/06/23 12:10:07;;;;;;;2.95;1.90;;;21.50;64.30;;;;;;6214484;23;20032;-69
2022/06/23 12:12:35;;;;;;;2.53;1.80;;;21.50;64.30;;;;;;6213958;23;20310;-69
2022/06/23 12:15:05;;;;;;;1.92;1.80;;;21.50;64.30;;;;;;6163785;23;20054;-69
2022/06/23 12:17:36;;;;;;;2.90;2.17;;;21.60;64.40;;;;;;6187993;23;20353;-69
2022/06/23 12:20:04;;;;;;;2.22;1.80;;;21.60;64.40;;;;;;6164372;23;20071;-69
2022/06/23 12:23:03;;;;;;;3.35;1.88;;;21.60;64.50;;;;;;6214150;23;20059;-69
2022/06/23 12:25:53;;;;;;;1.92;1.70;;;21.60;64.50;;;;;;6169145;23;20009;-69
2022/06/23 12:28:21;;;;;;;2.03;1.70;;;21.60;64.70;;;;;;6187631;23;20476;-69
2022/06/23 12:31:17;;;;;;;2.30;1.67;;;21.60;64.70;;;;;;6187913;23;20369;-69
2022/06/23 12:33:44;;;;;;;1.95;1.70;;;21.60;64.60;;;;;;6187537;23;20009;-69
2022/06/23 12:36:20;;;;;;;3.58;1.67;;;21.60;64.70;;;;;;6187455;23;20013;-69
2022/06/23 12:38:51;;;;;;;1.80;1.65;;;21.60;64.70;;;;;;6187964;23;20001;-69
2022/06/23 12:41:46;;;;;;;2.70;1.70;;;21.60;64.70;;;;;;6163135;23;20475;-69
2022/06/23 12:44:49;;;;;;;2.85;1.75;;;21.60;64.60;;;;;;6174358;23;20012;-69
2022/06/23 12:47:14;;;;;;;;;;;21.60;64.50;;;;;;6214803;23;20001;-69
2022/06/23 12:49:49;;;;;;;3.10;1.60;;;21.60;64.60;;;;;;6215434;23;19954;-69
2022/06/23 12:52:35;;;;;;;1.70;1.60;;;21.60;64.70;;;;;;6215971;23;20000;-69
2022/06/23 12:55:13;;;;;;;2.20;1.40;;;21.60;64.80;;;;;;6189399;23;20385;-69
2022/06/23 12:57:46;;;;;;;2.03;1.60;;;21.60;64.70;;;;;;6215638;23;20051;-69
2022/06/23 13:00:13;;;;;;;2.97;1.60;;;21.60;64.70;;;;;;6215925;23;19997;-69
2022/06/23 13:03:00;;;;;;;2.05;1.58;;;21.60;64.80;;;;;;6189383;23;20005;-69
2022/06/23 13:05:35;;;;;;;1.73;1.58;;;21.60;64.80;;;;;;6166928;23;20341;-69
2022/06/23 13:08:00;;;;;;;1.70;1.60;;;21.60;64.90;;;;;;6165315;23;20069;-69
2022/06/23 13:10:37;;;;;;;1.98;1.60;;;21.60;64.90;;;;;;6215686;23;20452;-69
2022/06/23 13:13:11;;;;;;;2.20;1.50;;;21.60;64.70;;;;;;6189528;23;20005;-69
2022/06/23 13:16:06;;;;;;;1.50;1.40;;;21.60;64.70;;;;;;6164624;23;20470;-69
2022/06/23 13:18:42;;;;;;;1.60;1.50;;;21.60;64.80;;;;;;6190463;23;20071;-69
2022/06/23 13:21:13;;;;;;;2.40;1.58;;;21.60;65.00;;;;;;6166088;23;20433;-69
2022/06/23 13:23:46;;;;;;;1.30;1.20;;;21.60;64.90;;;;;;6190144;23;20005;-69
2022/06/23 13:26:15;;;;;;;1.70;1.60;;;21.60;64.90;;;;;;6165629;23;20004;-69
2022/06/23 13:28:40;;;;;;;1.88;1.50;;;21.60;65.00;;;;;;6215729;23;20052;-69
2022/06/23 13:31:42;;;;;;;3.03;1.70;;;21.60;65.00;;;;;;6164561;23;20195;-69
2022/06/23 13:34:27;;;;;;;1.90;1.23;;;21.60;65.00;;;;;;6189160;23;20063;-69
2022/06/23 13:37:21;;;;;;;1.67;1.30;;;21.60;65.00;;;;;;6189453;23;20012;-69
2022/06/23 13:39:57;;;;;;;1.88;1.35;;;21.60;64.80;;;;;;6168248;23;19996;-69
2022/06/23 13:42:38;;;;;;;1.38;1.27;;;21.60;65.00;;;;;;6166045;23;20058;-69
2022/06/23 13:45:12;;;;;;;1.42;1.30;;;21.60;65.00;;;;;;6191111;23;20448;-69
2022/06/23 13:47:51;;;;;;;1.23;1.13;;;21.60;65.10;;;;;;6215354;23;20008;-69